createdAt,value
2018-11-05T00:00:57.490Z,8.98
2018-11-05T00:03:26.192Z,8.95
2018-11-05T00:05:54.842Z,8.93
2018-11-05T00:08:23.300Z,8.93
2018-11-05T00:10:51.774Z,8.93
2018-11-05T00:13:20.470Z,8.92
2018-11-05T00:15:49.172Z,8.92
2018-11-05T00:18:17.886Z,8.93
2018-11-05T00:20:47.492Z,8.93
2018-11-05T00:23:16.577Z,8.92
2018-11-05T00:25:45.032Z,8.94
2018-11-05T00:28:13.509Z,8.97
2018-11-05T00:30:42.666Z,8.98
2018-11-05T00:33:11.310Z,8.98
2018-11-05T00:35:40.950Z,8.96
2018-11-05T00:38:09.386Z,8.94
2018-11-05T00:40:37.854Z,8.95
2018-11-05T00:43:06.748Z,8.93
2018-11-05T00:45:35.617Z,8.93
2018-11-05T00:48:04.272Z,8.92
2018-11-05T00:50:32.905Z,8.93
2018-11-05T00:53:01.437Z,8.93
2018-11-05T00:55:30.004Z,8.91
2018-11-05T00:57:58.913Z,8.91
2018-11-05T01:00:27.462Z,8.90
2018-11-05T01:02:55.989Z,8.88
2018-11-05T01:05:24.529Z,8.89
2018-11-05T01:07:53.202Z,8.90
2018-11-05T01:10:22.759Z,8.87
2018-11-05T01:12:51.321Z,8.86
2018-11-05T01:15:21.018Z,8.86
2018-11-05T01:17:49.434Z,8.85
2018-11-05T01:20:18.023Z,8.85
2018-11-05T01:22:46.596Z,8.86
2018-11-05T01:25:15.022Z,8.86
2018-11-05T01:27:43.532Z,8.85
2018-11-05T01:30:13.267Z,8.85
2018-11-05T01:32:42.754Z,8.83
2018-11-05T01:35:12.470Z,8.81
2018-11-05T01:37:41.257Z,8.81
2018-11-05T01:40:12.457Z,8.83
2018-11-05T01:42:40.950Z,8.84
2018-11-05T01:45:10.759Z,8.84
2018-11-05T01:47:39.696Z,8.82
2018-11-05T01:50:10.331Z,8.81
2018-11-05T01:52:39.853Z,8.82
2018-11-05T01:55:09.104Z,8.82
2018-11-05T01:57:38.412Z,8.82
2018-11-05T02:00:10.666Z,8.85
2018-11-05T02:02:39.250Z,8.88
2018-11-05T02:05:08.538Z,8.90
2018-11-05T02:07:37.194Z,8.92
2018-11-05T02:10:08.983Z,8.95
2018-11-05T02:12:37.402Z,8.98
2018-11-05T02:15:07.452Z,9.01
2018-11-05T02:17:36.136Z,9.04
2018-11-05T02:20:05.166Z,9.09
2018-11-05T02:22:34.192Z,9.10
2018-11-05T02:25:03.276Z,9.14
2018-11-05T02:27:31.996Z,9.17
2018-11-05T02:30:00.532Z,9.19
2018-11-05T02:32:28.984Z,9.20
2018-11-05T02:34:57.424Z,9.19
2018-11-05T02:37:26.678Z,9.16
2018-11-05T02:39:55.452Z,9.17
2018-11-05T02:42:24.000Z,9.17
2018-11-05T02:44:53.897Z,9.18
2018-11-05T02:47:22.448Z,9.19
2018-11-05T02:49:50.880Z,9.20
2018-11-05T02:52:31.272Z,9.20
2018-11-05T02:54:59.861Z,9.23
2018-11-05T02:57:28.318Z,9.25
2018-11-05T02:59:56.914Z,9.27
2018-11-05T03:02:25.462Z,9.27
2018-11-05T03:04:53.893Z,9.28
2018-11-05T03:07:22.358Z,9.25
2018-11-05T03:09:51.058Z,9.23
2018-11-05T03:12:19.716Z,9.24
2018-11-05T03:14:48.339Z,9.24
2018-11-05T03:17:16.931Z,9.25
2018-11-05T03:19:45.676Z,9.26
2018-11-05T03:22:14.189Z,9.27
2018-11-05T03:24:42.921Z,9.26
2018-11-05T03:27:11.909Z,9.28
2018-11-05T03:29:40.354Z,9.28
2018-11-05T03:32:08.953Z,9.29
2018-11-05T03:34:37.500Z,9.30
2018-11-05T03:37:06.825Z,9.32
2018-11-05T03:39:35.416Z,9.30
2018-11-05T03:42:03.893Z,9.31
2018-11-05T03:44:32.412Z,9.32
2018-11-05T03:47:01.564Z,9.32
2018-11-05T03:49:30.473Z,9.35
2018-11-05T03:51:59.718Z,9.36
2018-11-05T03:54:28.571Z,9.36
2018-11-05T03:56:57.110Z,9.36
2018-11-05T03:59:26.368Z,9.36
2018-11-05T04:01:54.847Z,9.36
2018-11-05T04:04:23.286Z,9.36
2018-11-05T04:06:51.914Z,9.35
2018-11-05T04:09:20.371Z,9.35
2018-11-05T04:11:48.903Z,9.36
2018-11-05T04:14:18.084Z,9.35
2018-11-05T04:16:46.789Z,9.34
2018-11-05T04:19:15.251Z,9.31
2018-11-05T04:21:45.988Z,9.28
2018-11-05T04:24:15.587Z,9.29
2018-11-05T04:26:45.398Z,9.29
2018-11-05T04:29:14.539Z,9.31
2018-11-05T04:31:43.416Z,9.30
2018-11-05T04:34:12.052Z,9.30
2018-11-05T04:36:41.873Z,9.29
2018-11-05T04:39:12.999Z,9.29
2018-11-05T04:41:42.568Z,9.30
2018-11-05T04:44:11.285Z,9.30
2018-11-05T04:46:40.636Z,9.34
2018-11-05T04:49:09.565Z,9.35
2018-11-05T04:51:38.745Z,9.36
2018-11-05T04:54:08.228Z,9.38
2018-11-05T04:56:36.987Z,9.40
2018-11-05T04:59:06.451Z,9.39
2018-11-05T05:01:35.976Z,9.39
2018-11-05T05:04:04.559Z,9.37
2018-11-05T05:06:33.077Z,9.35
2018-11-05T05:09:02.402Z,9.33
2018-11-05T05:11:30.980Z,9.30
2018-11-05T05:13:59.553Z,9.27
2018-11-05T05:16:28.204Z,9.26
2018-11-05T05:18:57.550Z,9.24
2018-11-05T05:21:26.281Z,9.21
2018-11-05T05:23:54.752Z,9.20
2018-11-05T05:26:23.416Z,9.22
2018-11-05T05:28:51.901Z,9.24
2018-11-05T05:31:20.365Z,9.26
2018-11-05T05:33:48.962Z,9.27
2018-11-05T05:36:17.468Z,9.28
2018-11-05T05:38:46.145Z,9.30
2018-11-05T05:41:14.910Z,9.33
2018-11-05T05:43:44.134Z,9.36
2018-11-05T05:46:12.747Z,9.38
2018-11-05T05:48:41.248Z,9.40
2018-11-05T05:51:09.965Z,9.45
2018-11-05T05:53:38.549Z,9.47
2018-11-05T05:56:07.180Z,9.50
2018-11-05T05:58:36.828Z,9.52
2018-11-05T06:01:06.333Z,9.54
2018-11-05T06:03:34.855Z,9.56
2018-11-05T06:06:03.565Z,9.59
2018-11-05T06:08:32.114Z,9.60
2018-11-05T06:11:00.874Z,9.61
2018-11-05T06:13:29.308Z,9.62
2018-11-05T06:18:34.186Z,9.63
2018-11-05T06:21:02.649Z,9.61
2018-11-05T06:23:31.100Z,9.63
2018-11-05T06:26:00.084Z,9.65
2018-11-05T06:28:35.470Z,9.67
2018-11-05T06:31:03.936Z,9.68
2018-11-05T06:33:32.371Z,9.70
2018-11-05T06:36:01.119Z,9.72
2018-11-05T06:38:29.736Z,9.73
2018-11-05T06:41:01.521Z,9.75
2018-11-05T06:43:30.047Z,9.77
2018-11-05T06:45:58.703Z,9.79
2018-11-05T06:50:57.856Z,9.84
2018-11-05T06:53:26.375Z,9.90
2018-11-05T06:55:54.911Z,9.97
2018-11-05T06:58:23.396Z,10.03
2018-11-05T07:00:51.898Z,10.09
2018-11-05T07:03:20.602Z,10.11
2018-11-05T07:05:49.250Z,10.12
2018-11-05T07:08:17.760Z,10.16
2018-11-05T07:10:46.632Z,10.18
2018-11-05T07:13:15.266Z,10.21
2018-11-05T07:15:43.801Z,10.26
2018-11-05T07:18:13.607Z,10.30
2018-11-05T07:20:42.268Z,10.35
2018-11-05T07:23:10.812Z,10.38
2018-11-05T07:25:39.965Z,10.44
2018-11-05T07:28:08.915Z,10.47
2018-11-05T07:30:37.502Z,10.51
2018-11-05T07:33:06.275Z,10.55
2018-11-05T07:35:35.006Z,10.57
2018-11-05T07:38:03.580Z,10.59
2018-11-05T07:40:32.216Z,10.61
2018-11-05T07:43:00.685Z,10.65
2018-11-05T07:45:29.164Z,10.69
2018-11-05T07:47:57.778Z,10.72
2018-11-05T07:53:01.219Z,10.77
2018-11-05T07:55:29.776Z,10.81
2018-11-05T07:57:58.656Z,10.87
2018-11-05T08:00:32.524Z,10.91
2018-11-05T08:03:01.135Z,10.98
2018-11-05T08:05:29.745Z,11.04
2018-11-05T08:07:58.963Z,11.12
2018-11-05T08:10:27.689Z,11.21
2018-11-05T08:12:56.473Z,11.29
2018-11-05T08:15:25.956Z,11.37
2018-11-05T08:17:54.957Z,11.44
2018-11-05T08:20:23.594Z,11.50
2018-11-05T08:22:52.069Z,11.52
2018-11-05T08:25:20.664Z,11.52
2018-11-05T08:27:49.225Z,11.56
2018-11-05T08:30:21.393Z,11.59
2018-11-05T08:32:49.875Z,11.63
2018-11-05T08:35:18.860Z,11.66
2018-11-05T08:37:47.977Z,11.70
2018-11-05T08:40:19.024Z,11.70
2018-11-05T08:42:48.364Z,11.72
2018-11-05T08:45:18.804Z,11.72
2018-11-05T08:50:23.539Z,11.79
2018-11-05T08:52:52.662Z,11.83
2018-11-05T08:55:25.207Z,11.86
2018-11-05T08:57:57.131Z,11.88
2018-11-05T09:00:31.228Z,11.94
2018-11-05T09:02:59.684Z,11.98
2018-11-05T09:05:28.457Z,11.99
2018-11-05T09:07:57.180Z,12.02
2018-11-05T09:10:26.053Z,12.05
2018-11-05T09:12:56.097Z,12.06
2018-11-05T09:15:25.311Z,12.07
2018-11-05T09:17:53.942Z,12.09
2018-11-05T09:20:22.709Z,12.11
2018-11-05T09:22:51.961Z,12.12
2018-11-05T09:25:20.495Z,12.16
2018-11-05T09:27:48.995Z,12.18
2018-11-05T09:30:19.772Z,12.22
2018-11-05T09:32:49.522Z,12.26
2018-11-05T09:35:18.262Z,12.31
2018-11-05T09:37:46.956Z,12.36
2018-11-05T09:40:24.929Z,12.39
2018-11-05T09:42:53.916Z,12.44
2018-11-05T09:45:23.970Z,12.46
2018-11-05T09:47:52.493Z,12.47
2018-11-05T09:50:21.230Z,12.49
2018-11-05T09:52:49.767Z,12.51
2018-11-05T09:55:19.349Z,12.54
2018-11-05T09:57:48.519Z,12.59
2018-11-05T10:00:25.919Z,12.62
2018-11-05T10:02:59.790Z,12.66
2018-11-05T10:05:28.250Z,12.67
2018-11-05T10:07:56.836Z,12.71
2018-11-05T10:10:26.121Z,12.72
2018-11-05T10:12:54.570Z,12.75
2018-11-05T10:15:23.154Z,12.77
2018-11-05T10:17:51.859Z,12.79
2018-11-05T10:20:21.969Z,12.84
2018-11-05T10:22:50.453Z,12.95
2018-11-05T10:25:19.806Z,13.03
2018-11-05T10:27:49.200Z,13.07
2018-11-05T10:30:20.185Z,13.08
2018-11-05T10:32:48.775Z,13.11
2018-11-05T10:35:18.691Z,13.14
2018-11-05T10:37:47.197Z,13.18
2018-11-05T10:42:53.833Z,13.24
2018-11-05T10:45:22.288Z,13.24
2018-11-05T10:47:51.770Z,13.27
2018-11-05T10:50:21.122Z,13.29
2018-11-05T10:52:50.961Z,13.30
2018-11-05T10:55:19.432Z,13.31
2018-11-05T10:57:48.138Z,13.32
2018-11-05T11:00:26.145Z,13.35
2018-11-05T11:03:00.085Z,13.38
2018-11-05T11:05:30.238Z,13.41
2018-11-05T11:08:00.432Z,13.44
2018-11-05T11:10:29.668Z,13.47
2018-11-05T11:12:58.489Z,13.53
2018-11-05T11:15:27.025Z,13.60
2018-11-05T11:17:57.119Z,13.63
2018-11-05T11:20:25.800Z,13.63
2018-11-05T11:22:54.616Z,13.66
2018-11-05T11:25:23.492Z,13.71
2018-11-05T11:27:52.225Z,13.75
2018-11-05T11:30:20.628Z,13.79
2018-11-05T11:32:50.054Z,13.82
2018-11-05T11:35:18.697Z,13.89
2018-11-05T11:37:47.257Z,13.95
2018-11-05T11:40:18.191Z,13.93
2018-11-05T11:42:47.715Z,13.97
2018-11-05T11:45:17.296Z,14.04
2018-11-05T11:47:45.797Z,14.07
2018-11-05T11:50:15.570Z,14.13
2018-11-05T11:52:44.311Z,14.07
2018-11-05T11:55:15.064Z,13.98
2018-11-05T11:57:44.296Z,14.00
2018-11-05T12:00:18.324Z,14.02
2018-11-05T12:02:47.723Z,14.05
2018-11-05T12:05:16.383Z,14.12
2018-11-05T12:07:44.949Z,14.24
2018-11-05T12:10:18.890Z,14.37
2018-11-05T12:12:48.439Z,14.49
2018-11-05T12:15:18.240Z,14.39
2018-11-05T12:17:47.890Z,14.27
2018-11-05T12:20:17.851Z,14.18
2018-11-05T12:22:47.264Z,14.16
2018-11-05T12:25:15.870Z,14.15
2018-11-05T12:27:44.577Z,14.13
2018-11-05T12:30:17.613Z,14.12
2018-11-05T12:32:47.195Z,14.12
2018-11-05T12:35:16.392Z,14.09
2018-11-05T12:37:46.236Z,14.06
2018-11-05T12:40:16.276Z,14.06
2018-11-05T12:42:46.052Z,14.08
2018-11-05T12:45:14.572Z,14.07
2018-11-05T12:47:43.852Z,14.07
2018-11-05T12:50:15.190Z,14.08
2018-11-05T12:52:45.112Z,14.09
2018-11-05T12:55:13.649Z,14.09
2018-11-05T12:57:42.621Z,14.08
2018-11-05T13:00:15.840Z,14.07
2018-11-05T13:02:44.763Z,14.08
2018-11-05T13:05:19.849Z,14.10
2018-11-05T13:07:49.303Z,14.12
2018-11-05T13:10:17.930Z,14.19
2018-11-05T13:12:46.572Z,14.36
2018-11-05T13:15:15.116Z,14.48
2018-11-05T13:17:43.637Z,14.63
2018-11-05T13:20:18.634Z,14.88
2018-11-05T13:22:47.609Z,15.27
2018-11-05T13:25:16.143Z,15.58
2018-11-05T13:27:46.207Z,15.92
2018-11-05T13:30:15.308Z,16.22
2018-11-05T13:32:44.661Z,16.15
2018-11-05T13:35:16.460Z,15.95
2018-11-05T13:37:45.690Z,15.99
2018-11-05T13:40:15.799Z,16.07
2018-11-05T13:42:45.078Z,16.08
2018-11-05T13:45:14.489Z,15.93
2018-11-05T13:47:44.848Z,15.78
2018-11-05T13:50:13.473Z,15.66
2018-11-05T13:52:41.865Z,15.61
2018-11-05T13:55:12.694Z,15.54
2018-11-05T13:57:42.185Z,15.45
2018-11-05T14:00:14.209Z,15.35
2018-11-05T14:02:42.705Z,15.31
2018-11-05T14:07:46.466Z,15.31
2018-11-05T14:10:17.572Z,15.33
2018-11-05T14:12:47.376Z,15.31
2018-11-05T14:15:15.737Z,15.32
2018-11-05T14:17:46.318Z,15.30
2018-11-05T14:20:15.821Z,15.35
2018-11-05T14:22:44.747Z,15.31
2018-11-05T14:25:16.831Z,15.24
2018-11-05T14:27:47.501Z,15.16
2018-11-05T14:30:16.380Z,15.10
2018-11-05T14:32:46.283Z,15.03
2018-11-05T14:35:15.263Z,14.99
2018-11-05T14:37:43.853Z,14.95
2018-11-05T14:40:14.148Z,14.90
2018-11-05T14:42:43.229Z,14.86
2018-11-05T14:45:13.847Z,14.86
2018-11-05T14:47:43.691Z,14.83
2018-11-05T14:50:14.130Z,14.83
2018-11-05T14:52:42.762Z,14.81
2018-11-05T14:55:13.757Z,14.78
2018-11-05T14:57:43.153Z,14.75
2018-11-05T15:00:15.333Z,14.71
2018-11-05T15:02:44.530Z,14.67
2018-11-05T15:05:14.477Z,14.63
2018-11-05T15:07:44.065Z,14.59
2018-11-05T15:10:14.181Z,14.55
2018-11-05T15:12:43.152Z,14.51
2018-11-05T15:15:12.867Z,14.47
2018-11-05T15:17:42.149Z,14.42
2018-11-05T15:20:12.943Z,14.38
2018-11-05T15:22:41.366Z,14.32
2018-11-05T15:25:10.433Z,14.27
2018-11-05T15:27:39.804Z,14.20
2018-11-05T15:32:45.719Z,14.08
2018-11-05T15:35:14.607Z,14.00
2018-11-05T15:37:43.452Z,13.96
2018-11-05T15:40:13.958Z,13.91
2018-11-05T15:42:42.466Z,13.89
2018-11-05T15:45:12.536Z,13.84
2018-11-05T15:47:41.601Z,13.79
2018-11-05T15:50:12.228Z,13.73
2018-11-05T15:52:40.996Z,13.67
2018-11-05T15:55:09.527Z,13.62
2018-11-05T15:57:38.974Z,13.59
2018-11-05T16:00:15.552Z,13.55
2018-11-05T16:02:44.905Z,13.48
2018-11-05T16:05:13.341Z,13.45
2018-11-05T16:07:41.832Z,13.42
2018-11-05T16:10:11.066Z,13.39
2018-11-05T16:12:39.749Z,13.33
2018-11-05T16:15:09.445Z,13.30
2018-11-05T16:17:38.746Z,13.27
2018-11-05T16:20:09.204Z,13.22
2018-11-05T16:22:40.276Z,13.21
2018-11-05T16:25:08.783Z,13.17
2018-11-05T16:27:37.921Z,13.15
2018-11-05T16:30:12.837Z,13.13
2018-11-05T16:32:41.908Z,13.11
2018-11-05T16:35:10.698Z,13.10
2018-11-05T16:37:40.381Z,13.08
2018-11-05T16:40:12.774Z,13.06
2018-11-05T16:42:41.872Z,13.02
2018-11-05T16:45:10.868Z,12.99
2018-11-05T16:47:40.995Z,12.94
2018-11-05T16:50:15.908Z,12.91
2018-11-05T16:52:44.461Z,12.87
2018-11-05T16:55:14.062Z,12.84
2018-11-05T16:57:43.226Z,12.82
2018-11-05T17:00:12.425Z,12.79
2018-11-05T17:02:41.435Z,12.79
2018-11-05T17:05:10.614Z,12.79
2018-11-05T17:07:39.393Z,12.80
2018-11-05T17:10:09.344Z,12.81
2018-11-05T17:12:43.936Z,12.83
2018-11-05T17:15:14.038Z,12.82
2018-11-05T17:17:43.867Z,12.83
2018-11-05T17:20:19.367Z,12.83
2018-11-05T17:22:48.086Z,12.84
2018-11-05T17:25:18.929Z,12.84
2018-11-05T17:27:48.157Z,12.85
2018-11-05T17:30:20.134Z,12.85
2018-11-05T17:32:48.830Z,12.85
2018-11-05T17:35:17.716Z,12.83
2018-11-05T17:37:47.095Z,12.83
2018-11-05T17:40:18.144Z,12.83
2018-11-05T17:42:46.671Z,12.82
2018-11-05T17:45:16.535Z,12.79
2018-11-05T17:47:45.367Z,12.80
2018-11-05T17:50:23.509Z,12.80
2018-11-05T17:52:52.471Z,12.79
2018-11-05T17:55:21.033Z,12.78
2018-11-05T17:57:50.018Z,12.77
2018-11-05T18:00:20.004Z,12.77
2018-11-05T18:02:49.190Z,12.75
2018-11-05T18:05:17.875Z,12.74
2018-11-05T18:07:46.957Z,12.72
2018-11-05T18:10:15.949Z,12.72
2018-11-05T18:12:44.588Z,12.70
2018-11-05T18:15:13.635Z,12.68
2018-11-05T18:17:43.241Z,12.69
2018-11-05T18:20:13.190Z,12.69
2018-11-05T18:22:42.209Z,12.66
2018-11-05T18:25:13.388Z,12.65
2018-11-05T18:27:43.342Z,12.63
2018-11-05T18:30:12.615Z,12.61
2018-11-05T18:32:41.483Z,12.59
2018-11-05T18:35:11.529Z,12.57
2018-11-05T18:37:40.624Z,12.53
2018-11-05T18:40:11.541Z,12.49
2018-11-05T18:42:40.934Z,12.48
2018-11-05T18:45:10.100Z,12.46
2018-11-05T18:47:38.832Z,12.45
2018-11-05T18:50:09.428Z,12.45
2018-11-05T18:52:38.089Z,12.44
2018-11-05T18:55:08.533Z,12.43
2018-11-05T18:57:38.256Z,12.43
2018-11-05T19:00:15.989Z,12.43
2018-11-05T19:02:45.057Z,12.42
2018-11-05T19:05:14.002Z,12.41
2018-11-05T19:07:42.647Z,12.39
2018-11-05T19:10:11.391Z,12.39
2018-11-05T19:12:40.230Z,12.39
2018-11-05T19:15:10.587Z,12.39
2018-11-05T19:17:39.351Z,12.37
2018-11-05T19:20:08.735Z,12.36
2018-11-05T19:22:44.532Z,12.36
2018-11-05T19:25:14.432Z,12.32
2018-11-05T19:27:43.538Z,12.28
2018-11-05T19:30:15.714Z,12.26
2018-11-05T19:32:44.562Z,12.25
2018-11-05T19:35:13.704Z,12.24
2018-11-05T19:37:42.851Z,12.21
2018-11-05T19:40:12.680Z,12.19
2018-11-05T19:42:42.380Z,12.19
2018-11-05T19:45:18.830Z,12.16
2018-11-05T19:47:47.404Z,12.16
2018-11-05T19:50:17.487Z,12.13
2018-11-05T19:52:47.164Z,12.12
2018-11-05T19:55:16.792Z,12.09
2018-11-05T19:57:46.272Z,12.09
2018-11-05T20:00:17.594Z,12.06
2018-11-05T20:02:47.152Z,12.03
2018-11-05T20:05:16.260Z,12.03
2018-11-05T20:07:45.321Z,12.03
2018-11-05T20:12:48.726Z,12.02
2018-11-05T20:15:17.696Z,12.03
2018-11-05T20:17:47.258Z,12.02
2018-11-05T20:20:17.500Z,12.01
2018-11-05T20:22:46.204Z,11.99
2018-11-05T20:25:14.888Z,11.97
2018-11-05T20:27:43.666Z,11.94
2018-11-05T20:30:17.768Z,11.91
2018-11-05T20:32:47.806Z,11.92
2018-11-05T20:35:16.243Z,11.88
2018-11-05T20:37:44.837Z,11.86
2018-11-05T20:40:15.951Z,11.84
2018-11-05T20:42:45.684Z,11.82
2018-11-05T20:45:15.529Z,11.81
2018-11-05T20:47:44.480Z,11.82
2018-11-05T20:50:14.246Z,11.84
2018-11-05T20:52:43.033Z,11.82
2018-11-05T20:55:13.049Z,11.81
2018-11-05T20:57:42.625Z,11.77
2018-11-05T21:00:13.584Z,11.77
2018-11-05T21:02:42.923Z,11.72
2018-11-05T21:05:11.619Z,11.70
2018-11-05T21:07:41.598Z,11.66
2018-11-05T21:10:11.859Z,11.61
2018-11-05T21:12:41.441Z,11.57
2018-11-05T21:15:14.777Z,11.55
2018-11-05T21:17:44.240Z,11.54
2018-11-05T21:20:13.340Z,11.49
2018-11-05T21:22:45.296Z,11.50
2018-11-05T21:25:20.355Z,11.47
2018-11-05T21:27:49.275Z,11.44
2018-11-05T21:30:19.924Z,11.41
2018-11-05T21:32:48.788Z,11.38
2018-11-05T21:35:18.876Z,11.37
2018-11-05T21:37:48.459Z,11.32
2018-11-05T21:40:17.848Z,11.25
2018-11-05T21:42:46.691Z,11.27
2018-11-05T21:45:16.207Z,11.24
2018-11-05T21:47:45.580Z,11.22
2018-11-05T21:50:19.439Z,11.21
2018-11-05T21:52:48.645Z,11.12
2018-11-05T21:55:17.289Z,11.16
2018-11-05T21:57:47.241Z,11.15
2018-11-05T22:00:18.364Z,11.14
2018-11-05T22:02:52.056Z,11.08
2018-11-05T22:05:21.276Z,11.06
2018-11-05T22:07:50.243Z,11.05
2018-11-05T22:10:18.945Z,11.04
2018-11-05T22:12:48.956Z,11.02
2018-11-05T22:15:17.724Z,11.01
2018-11-05T22:17:46.216Z,10.98
2018-11-05T22:20:14.917Z,10.93
2018-11-05T22:22:43.661Z,10.92
2018-11-05T22:25:12.337Z,10.90
2018-11-05T22:27:40.957Z,10.88
2018-11-05T22:30:11.175Z,10.86
2018-11-05T22:32:39.653Z,10.85
2018-11-05T22:35:08.331Z,10.83
2018-11-05T22:37:37.608Z,10.82
2018-11-05T22:42:44.310Z,10.78
2018-11-05T22:45:14.368Z,10.76
2018-11-05T22:47:43.630Z,10.76
2018-11-05T22:50:12.480Z,10.76
2018-11-05T22:52:41.846Z,10.75
2018-11-05T22:55:11.086Z,10.75
2018-11-05T22:57:39.765Z,10.75
2018-11-05T23:00:17.626Z,10.72
2018-11-05T23:02:51.460Z,10.71
2018-11-05T23:05:20.467Z,10.69
2018-11-05T23:07:50.425Z,10.66
2018-11-05T23:10:19.062Z,10.67
2018-11-05T23:12:47.531Z,10.65
2018-11-05T23:15:16.348Z,10.65
2018-11-05T23:17:45.176Z,10.62
2018-11-05T23:20:13.624Z,10.62
2018-11-05T23:25:17.589Z,10.58
2018-11-05T23:27:46.346Z,10.57
2018-11-05T23:30:14.806Z,10.57
2018-11-05T23:32:43.432Z,10.54
2018-11-05T23:35:12.940Z,10.54
2018-11-05T23:37:42.378Z,10.53
2018-11-05T23:40:11.725Z,10.52
2018-11-05T23:42:40.544Z,10.52
2018-11-05T23:45:13.162Z,10.50
2018-11-05T23:47:41.784Z,10.48
2018-11-05T23:50:10.911Z,10.47
2018-11-05T23:52:39.840Z,10.47
2018-11-05T23:55:09.151Z,10.45
2018-11-05T23:57:37.655Z,10.45
